SBZ weather

Sibiu International Airport
Sibiu, Sibiu, Romania

Public forecast

Using degrees Celsius for public forecast. Weather courtesy of forecast.io.

METAR (pilot weather report)

Retrieved 2019/08/19 12:30 UTC (28 minutes ago):

LRSB 191230Z 10005KT 020V190 9999 FEW040 29/11 Q1019 NOSIG

TAF (pilot weather forecast)

Retrieved 2019/08/19 12:31 UTC (27 minutes ago):

TAF LRSB 191100Z 1912/2012 VRB04KT CAVOK